sensor_id;sensor_type;location;lat;lon;timestamp;P1;durP1;ratioP1;P2;durP2;ratioP2
8948;SDS011;4509;51.522;9.910;2022-07-22T00:00:33;4.03;;;3.93;;
8948;SDS011;4509;51.522;9.910;2022-07-22T00:03:00;3.97;;;3.87;;
8948;SDS011;4509;51.522;9.910;2022-07-22T00:05:28;3.67;;;3.57;;
8948;SDS011;4509;51.522;9.910;2022-07-22T00:07:55;3.43;;;3.33;;
8948;SDS011;4509;51.522;9.910;2022-07-22T00:10:22;3.23;;;3.13;;
8948;SDS011;4509;51.522;9.910;2022-07-22T00:12:48;3.57;;;3.47;;
8948;SDS011;4509;51.522;9.910;2022-07-22T00:15:15;3.30;;;3.20;;
8948;SDS011;4509;51.522;9.910;2022-07-22T00:17:42;3.10;;;3.00;;
8948;SDS011;4509;51.522;9.910;2022-07-22T00:20:08;3.50;;;3.40;;
8948;SDS011;4509;51.522;9.910;2022-07-22T00:22:37;3.10;;;3.00;;
8948;SDS011;4509;51.522;9.910;2022-07-22T00:25:04;3.10;;;3.00;;
8948;SDS011;4509;51.522;9.910;2022-07-22T00:27:32;2.97;;;2.87;;
8948;SDS011;4509;51.522;9.910;2022-07-22T00:29:59;3.33;;;3.23;;
8948;SDS011;4509;51.522;9.910;2022-07-22T00:32:25;3.33;;;3.23;;
8948;SDS011;4509;51.522;9.910;2022-07-22T00:34:52;3.30;;;3.20;;
8948;SDS011;4509;51.522;9.910;2022-07-22T00:37:18;3.30;;;3.20;;
8948;SDS011;4509;51.522;9.910;2022-07-22T00:39:46;3.70;;;3.60;;
8948;SDS011;4509;51.522;9.910;2022-07-22T00:42:13;3.63;;;3.53;;
8948;SDS011;4509;51.522;9.910;2022-07-22T00:44:40;3.57;;;3.47;;
8948;SDS011;4509;51.522;9.910;2022-07-22T00:47:07;3.80;;;3.70;;
8948;SDS011;4509;51.522;9.910;2022-07-22T00:49:34;3.23;;;3.13;;
8948;SDS011;4509;51.522;9.910;2022-07-22T00:52:00;3.90;;;3.80;;
8948;SDS011;4509;51.522;9.910;2022-07-22T00:54:28;3.43;;;3.33;;
8948;SDS011;4509;51.522;9.910;2022-07-22T00:56:56;3.83;;;3.73;;
8948;SDS011;4509;51.522;9.910;2022-07-22T00:59:22;3.47;;;3.37;;
8948;SDS011;4509;51.522;9.910;2022-07-22T01:01:49;3.17;;;3.07;;
8948;SDS011;4509;51.522;9.910;2022-07-22T01:04:16;3.47;;;3.37;;
8948;SDS011;4509;51.522;9.910;2022-07-22T01:06:43;3.50;;;3.40;;
8948;SDS011;4509;51.522;9.910;2022-07-22T01:09:10;3.23;;;3.13;;
8948;SDS011;4509;51.522;9.910;2022-07-22T01:11:38;3.57;;;3.47;;
8948;SDS011;4509;51.522;9.910;2022-07-22T01:14:07;3.07;;;2.97;;
8948;SDS011;4509;51.522;9.910;2022-07-22T01:16:34;3.67;;;3.57;;
8948;SDS011;4509;51.522;9.910;2022-07-22T01:19:02;3.97;;;3.87;;
8948;SDS011;4509;51.522;9.910;2022-07-22T01:21:30;4.13;;;4.03;;
8948;SDS011;4509;51.522;9.910;2022-07-22T01:23:57;3.10;;;3.00;;
8948;SDS011;4509;51.522;9.910;2022-07-22T01:26:24;3.30;;;3.20;;
8948;SDS011;4509;51.522;9.910;2022-07-22T01:28:51;3.27;;;3.17;;
8948;SDS011;4509;51.522;9.910;2022-07-22T01:31:18;3.50;;;3.40;;
8948;SDS011;4509;51.522;9.910;2022-07-22T01:33:44;3.40;;;3.30;;
8948;SDS011;4509;51.522;9.910;2022-07-22T01:36:11;4.10;;;4.00;;
8948;SDS011;4509;51.522;9.910;2022-07-22T01:38:39;3.40;;;3.30;;
8948;SDS011;4509;51.522;9.910;2022-07-22T01:41:06;3.60;;;3.50;;
8948;SDS011;4509;51.522;9.910;2022-07-22T01:43:33;3.57;;;3.47;;
8948;SDS011;4509;51.522;9.910;2022-07-22T01:46:00;3.63;;;3.53;;
8948;SDS011;4509;51.522;9.910;2022-07-22T01:48:27;3.33;;;3.23;;
8948;SDS011;4509;51.522;9.910;2022-07-22T01:50:53;3.17;;;3.07;;
8948;SDS011;4509;51.522;9.910;2022-07-22T01:53:20;3.33;;;3.23;;
8948;SDS011;4509;51.522;9.910;2022-07-22T01:55:48;3.50;;;3.40;;
8948;SDS011;4509;51.522;9.910;2022-07-22T01:58:15;3.00;;;2.90;;
8948;SDS011;4509;51.522;9.910;2022-07-22T02:00:42;3.10;;;3.00;;
8948;SDS011;4509;51.522;9.910;2022-07-22T02:03:08;3.30;;;3.20;;
8948;SDS011;4509;51.522;9.910;2022-07-22T02:05:36;3.17;;;3.07;;
8948;SDS011;4509;51.522;9.910;2022-07-22T02:08:03;2.93;;;2.83;;
8948;SDS011;4509;51.522;9.910;2022-07-22T02:10:31;3.50;;;3.40;;
8948;SDS011;4509;51.522;9.910;2022-07-22T02:13:00;3.50;;;3.40;;
8948;SDS011;4509;51.522;9.910;2022-07-22T02:15:27;3.27;;;3.17;;
8948;SDS011;4509;51.522;9.910;2022-07-22T02:17:53;2.97;;;2.87;;
8948;SDS011;4509;51.522;9.910;2022-07-22T02:20:20;3.20;;;3.10;;
8948;SDS011;4509;51.522;9.910;2022-07-22T02:22:47;3.17;;;3.07;;
8948;SDS011;4509;51.522;9.910;2022-07-22T02:25:14;3.33;;;3.23;;
8948;SDS011;4509;51.522;9.910;2022-07-22T02:27:41;2.97;;;2.87;;
8948;SDS011;4509;51.522;9.910;2022-07-22T02:30:10;3.47;;;3.37;;
8948;SDS011;4509;51.522;9.910;2022-07-22T02:32:37;3.27;;;3.17;;
8948;SDS011;4509;51.522;9.910;2022-07-22T02:35:04;3.10;;;3.00;;
8948;SDS011;4509;51.522;9.910;2022-07-22T02:37:32;3.00;;;2.90;;
8948;SDS011;4509;51.522;9.910;2022-07-22T02:39:58;3.07;;;2.97;;
8948;SDS011;4509;51.522;9.910;2022-07-22T02:42:25;3.03;;;2.93;;
8948;SDS011;4509;51.522;9.910;2022-07-22T02:44:52;2.90;;;2.80;;
8948;SDS011;4509;51.522;9.910;2022-07-22T02:47:20;2.87;;;2.77;;
8948;SDS011;4509;51.522;9.910;2022-07-22T02:49:46;2.67;;;2.57;;
8948;SDS011;4509;51.522;9.910;2022-07-22T02:52:13;2.90;;;2.80;;
8948;SDS011;4509;51.522;9.910;2022-07-22T02:54:40;2.73;;;2.63;;
8948;SDS011;4509;51.522;9.910;2022-07-22T02:57:07;2.90;;;2.80;;
8948;SDS011;4509;51.522;9.910;2022-07-22T02:59:34;2.73;;;2.63;;
8948;SDS011;4509;51.522;9.910;2022-07-22T03:02:01;2.60;;;2.50;;
8948;SDS011;4509;51.522;9.910;2022-07-22T03:04:29;2.57;;;2.47;;
8948;SDS011;4509;51.522;9.910;2022-07-22T03:06:56;2.70;;;2.60;;
8948;SDS011;4509;51.522;9.910;2022-07-22T03:09:22;2.70;;;2.60;;
8948;SDS011;4509;51.522;9.910;2022-07-22T03:11:49;2.50;;;2.40;;
8948;SDS011;4509;51.522;9.910;2022-07-22T03:14:16;2.77;;;2.67;;
8948;SDS011;4509;51.522;9.910;2022-07-22T03:16:43;2.67;;;2.57;;
8948;SDS011;4509;51.522;9.910;2022-07-22T03:19:10;2.30;;;2.20;;
8948;SDS011;4509;51.522;9.910;2022-07-22T03:21:38;2.47;;;2.37;;
8948;SDS011;4509;51.522;9.910;2022-07-22T03:24:04;2.40;;;2.30;;
8948;SDS011;4509;51.522;9.910;2022-07-22T03:26:31;2.70;;;2.60;;
8948;SDS011;4509;51.522;9.910;2022-07-22T03:28:58;2.07;;;2.03;;
8948;SDS011;4509;51.522;9.910;2022-07-22T03:31:25;2.40;;;2.30;;
8948;SDS011;4509;51.522;9.910;2022-07-22T03:33:52;2.43;;;2.33;;
8948;SDS011;4509;51.522;9.910;2022-07-22T03:36:18;2.67;;;2.57;;
8948;SDS011;4509;51.522;9.910;2022-07-22T03:38:46;2.27;;;2.20;;
8948;SDS011;4509;51.522;9.910;2022-07-22T03:41:13;2.40;;;2.30;;
8948;SDS011;4509;51.522;9.910;2022-07-22T03:43:40;2.43;;;2.33;;
8948;SDS011;4509;51.522;9.910;2022-07-22T03:46:06;2.40;;;2.30;;
8948;SDS011;4509;51.522;9.910;2022-07-22T03:48:33;2.50;;;2.40;;
8948;SDS011;4509;51.522;9.910;2022-07-22T03:51:00;2.40;;;2.30;;
8948;SDS011;4509;51.522;9.910;2022-07-22T03:53:27;2.60;;;2.50;;
8948;SDS011;4509;51.522;9.910;2022-07-22T03:55:55;2.40;;;2.30;;
8948;SDS011;4509;51.522;9.910;2022-07-22T03:58:22;2.50;;;2.40;;
8948;SDS011;4509;51.522;9.910;2022-07-22T04:00:49;2.70;;;2.60;;
8948;SDS011;4509;51.522;9.910;2022-07-22T04:03:16;2.40;;;2.30;;
8948;SDS011;4509;51.522;9.910;2022-07-22T04:05:42;2.37;;;2.27;;
8948;SDS011;4509;51.522;9.910;2022-07-22T04:08:09;2.17;;;2.13;;
8948;SDS011;4509;51.522;9.910;2022-07-22T04:10:36;1.97;;;1.97;;
8948;SDS011;4509;51.522;9.910;2022-07-22T04:13:04;2.67;;;2.57;;
8948;SDS011;4509;51.522;9.910;2022-07-22T04:15:31;2.37;;;2.27;;
8948;SDS011;4509;51.522;9.910;2022-07-22T04:17:58;2.27;;;2.20;;
8948;SDS011;4509;51.522;9.910;2022-07-22T04:20:24;2.47;;;2.37;;
8948;SDS011;4509;51.522;9.910;2022-07-22T04:22:53;2.03;;;2.03;;
8948;SDS011;4509;51.522;9.910;2022-07-22T04:25:19;2.63;;;2.53;;
8948;SDS011;4509;51.522;9.910;2022-07-22T04:27:46;2.40;;;2.30;;
8948;SDS011;4509;51.522;9.910;2022-07-22T04:30:14;2.50;;;2.40;;
8948;SDS011;4509;51.522;9.910;2022-07-22T04:32:41;2.33;;;2.27;;
8948;SDS011;4509;51.522;9.910;2022-07-22T04:35:07;2.33;;;2.23;;
8948;SDS011;4509;51.522;9.910;2022-07-22T04:37:34;2.37;;;2.27;;
8948;SDS011;4509;51.522;9.910;2022-07-22T04:40:01;2.27;;;2.20;;
8948;SDS011;4509;51.522;9.910;2022-07-22T04:42:28;2.33;;;2.23;;
8948;SDS011;4509;51.522;9.910;2022-07-22T04:44:55;2.40;;;2.30;;
8948;SDS011;4509;51.522;9.910;2022-07-22T04:47:22;2.30;;;2.23;;
8948;SDS011;4509;51.522;9.910;2022-07-22T04:49:49;2.13;;;2.10;;
8948;SDS011;4509;51.522;9.910;2022-07-22T04:52:16;2.23;;;2.13;;
8948;SDS011;4509;51.522;9.910;2022-07-22T04:54:42;2.03;;;2.03;;
8948;SDS011;4509;51.522;9.910;2022-07-22T04:57:09;2.23;;;2.17;;
8948;SDS011;4509;51.522;9.910;2022-07-22T04:59:36;1.97;;;1.97;;
8948;SDS011;4509;51.522;9.910;2022-07-22T05:02:02;1.87;;;1.87;;
8948;SDS011;4509;51.522;9.910;2022-07-22T05:04:30;2.37;;;2.27;;
8948;SDS011;4509;51.522;9.910;2022-07-22T05:06:57;2.20;;;2.13;;
8948;SDS011;4509;51.522;9.910;2022-07-22T05:09:24;2.20;;;2.17;;
8948;SDS011;4509;51.522;9.910;2022-07-22T05:11:50;2.33;;;2.27;;
8948;SDS011;4509;51.522;9.910;2022-07-22T05:14:17;2.13;;;2.10;;
8948;SDS011;4509;51.522;9.910;2022-07-22T05:16:45;2.13;;;2.10;;
8948;SDS011;4509;51.522;9.910;2022-07-22T05:19:11;2.10;;;2.10;;
8948;SDS011;4509;51.522;9.910;2022-07-22T05:21:39;1.97;;;1.97;;
8948;SDS011;4509;51.522;9.910;2022-07-22T05:24:06;2.03;;;2.03;;
8948;SDS011;4509;51.522;9.910;2022-07-22T05:26:33;1.90;;;1.90;;
8948;SDS011;4509;51.522;9.910;2022-07-22T05:29:00;1.93;;;1.93;;
8948;SDS011;4509;51.522;9.910;2022-07-22T05:31:26;2.07;;;2.07;;
8948;SDS011;4509;51.522;9.910;2022-07-22T05:33:53;1.97;;;1.97;;
8948;SDS011;4509;51.522;9.910;2022-07-22T05:36:20;2.53;;;2.43;;
8948;SDS011;4509;51.522;9.910;2022-07-22T05:38:48;2.67;;;2.57;;
8948;SDS011;4509;51.522;9.910;2022-07-22T05:41:15;2.57;;;2.47;;
8948;SDS011;4509;51.522;9.910;2022-07-22T05:43:42;2.43;;;2.33;;
8948;SDS011;4509;51.522;9.910;2022-07-22T05:46:09;2.80;;;2.70;;
8948;SDS011;4509;51.522;9.910;2022-07-22T05:48:35;2.67;;;2.57;;
8948;SDS011;4509;51.522;9.910;2022-07-22T05:51:02;2.57;;;2.47;;
8948;SDS011;4509;51.522;9.910;2022-07-22T05:53:29;2.87;;;2.77;;
8948;SDS011;4509;51.522;9.910;2022-07-22T05:55:57;3.47;;;3.37;;
8948;SDS011;4509;51.522;9.910;2022-07-22T05:58:23;4.23;;;4.10;;
8948;SDS011;4509;51.522;9.910;2022-07-22T06:00:50;4.00;;;3.90;;
8948;SDS011;4509;51.522;9.910;2022-07-22T06:03:17;4.00;;;3.90;;
8948;SDS011;4509;51.522;9.910;2022-07-22T06:05:43;3.83;;;3.73;;
8948;SDS011;4509;51.522;9.910;2022-07-22T06:08:10;4.03;;;3.93;;
8948;SDS011;4509;51.522;9.910;2022-07-22T06:10:37;4.00;;;3.90;;
8948;SDS011;4509;51.522;9.910;2022-07-22T06:13:05;4.03;;;3.93;;
8948;SDS011;4509;51.522;9.910;2022-07-22T06:15:31;4.63;;;4.43;;
8948;SDS011;4509;51.522;9.910;2022-07-22T06:17:58;4.50;;;4.30;;
8948;SDS011;4509;51.522;9.910;2022-07-22T06:20:25;4.07;;;3.97;;
8948;SDS011;4509;51.522;9.910;2022-07-22T06:22:52;3.90;;;3.80;;
8948;SDS011;4509;51.522;9.910;2022-07-22T06:25:18;4.40;;;4.20;;
8948;SDS011;4509;51.522;9.910;2022-07-22T06:27:45;4.77;;;4.57;;
8948;SDS011;4509;51.522;9.910;2022-07-22T06:30:13;4.47;;;4.27;;
8948;SDS011;4509;51.522;9.910;2022-07-22T06:32:40;4.03;;;3.93;;
8948;SDS011;4509;51.522;9.910;2022-07-22T06:35:07;4.63;;;4.43;;
8948;SDS011;4509;51.522;9.910;2022-07-22T06:37:34;4.23;;;4.10;;
8948;SDS011;4509;51.522;9.910;2022-07-22T06:40:01;4.17;;;4.07;;
8948;SDS011;4509;51.522;9.910;2022-07-22T06:42:28;4.37;;;4.20;;
8948;SDS011;4509;51.522;9.910;2022-07-22T06:44:55;4.53;;;4.33;;
8948;SDS011;4509;51.522;9.910;2022-07-22T06:47:23;4.53;;;4.33;;
8948;SDS011;4509;51.522;9.910;2022-07-22T06:49:49;4.13;;;4.03;;
8948;SDS011;4509;51.522;9.910;2022-07-22T06:52:16;4.23;;;4.13;;
8948;SDS011;4509;51.522;9.910;2022-07-22T06:54:43;4.37;;;4.20;;
8948;SDS011;4509;51.522;9.910;2022-07-22T06:57:09;4.07;;;3.97;;
8948;SDS011;4509;51.522;9.910;2022-07-22T06:59:36;4.07;;;3.97;;
8948;SDS011;4509;51.522;9.910;2022-07-22T07:02:03;4.23;;;4.07;;
8948;SDS011;4509;51.522;9.910;2022-07-22T07:04:31;3.90;;;3.80;;
8948;SDS011;4509;51.522;9.910;2022-07-22T07:06:57;4.10;;;4.00;;
8948;SDS011;4509;51.522;9.910;2022-07-22T07:09:24;4.93;;;4.73;;
8948;SDS011;4509;51.522;9.910;2022-07-22T07:11:51;5.10;;;4.90;;
8948;SDS011;4509;51.522;9.910;2022-07-22T07:14:17;4.37;;;4.20;;
8948;SDS011;4509;51.522;9.910;2022-07-22T07:16:44;4.57;;;4.37;;
8948;SDS011;4509;51.522;9.910;2022-07-22T07:19:10;4.30;;;4.13;;
8948;SDS011;4509;51.522;9.910;2022-07-22T07:21:39;4.50;;;4.30;;
8948;SDS011;4509;51.522;9.910;2022-07-22T07:24:06;4.77;;;4.57;;
8948;SDS011;4509;51.522;9.910;2022-07-22T07:26:32;4.63;;;4.43;;
8948;SDS011;4509;51.522;9.910;2022-07-22T07:28:59;5.03;;;4.83;;
8948;SDS011;4509;51.522;9.910;2022-07-22T07:31:26;5.47;;;5.27;;
8948;SDS011;4509;51.522;9.910;2022-07-22T07:33:52;4.53;;;4.33;;
8948;SDS011;4509;51.522;9.910;2022-07-22T07:36:20;5.30;;;5.10;;
8948;SDS011;4509;51.522;9.910;2022-07-22T07:38:48;4.67;;;4.47;;
8948;SDS011;4509;51.522;9.910;2022-07-22T07:41:15;5.30;;;5.10;;
8948;SDS011;4509;51.522;9.910;2022-07-22T07:43:42;4.00;;;3.90;;
8948;SDS011;4509;51.522;9.910;2022-07-22T07:46:08;4.57;;;4.37;;
8948;SDS011;4509;51.522;9.910;2022-07-22T07:48:35;4.43;;;4.23;;
8948;SDS011;4509;51.522;9.910;2022-07-22T07:51:02;4.03;;;3.93;;
8948;SDS011;4509;51.522;9.910;2022-07-22T07:53:36;4.47;;;4.27;;
8948;SDS011;4509;51.522;9.910;2022-07-22T07:56:05;3.93;;;3.83;;
8948;SDS011;4509;51.522;9.910;2022-07-22T07:58:32;4.17;;;4.03;;
8948;SDS011;4509;51.522;9.910;2022-07-22T08:00:58;4.20;;;4.10;;
8948;SDS011;4509;51.522;9.910;2022-07-22T08:03:25;3.87;;;3.77;;
8948;SDS011;4509;51.522;9.910;2022-07-22T08:05:52;3.50;;;3.40;;
8948;SDS011;4509;51.522;9.910;2022-07-22T08:08:19;3.50;;;3.40;;
8948;SDS011;4509;51.522;9.910;2022-07-22T08:10:46;3.57;;;3.47;;
8948;SDS011;4509;51.522;9.910;2022-07-22T08:13:14;3.27;;;3.17;;
8948;SDS011;4509;51.522;9.910;2022-07-22T08:15:41;3.10;;;3.00;;
8948;SDS011;4509;51.522;9.910;2022-07-22T08:18:07;3.87;;;3.77;;
8948;SDS011;4509;51.522;9.910;2022-07-22T08:20:34;3.30;;;3.20;;
8948;SDS011;4509;51.522;9.910;2022-07-22T08:23:01;2.93;;;2.83;;
8948;SDS011;4509;51.522;9.910;2022-07-22T08:25:28;2.50;;;2.40;;
8948;SDS011;4509;51.522;9.910;2022-07-22T08:27:55;2.67;;;2.57;;
8948;SDS011;4509;51.522;9.910;2022-07-22T08:30:23;2.70;;;2.60;;
8948;SDS011;4509;51.522;9.910;2022-07-22T08:32:52;3.00;;;2.90;;
8948;SDS011;4509;51.522;9.910;2022-07-22T08:35:19;2.70;;;2.60;;
8948;SDS011;4509;51.522;9.910;2022-07-22T08:37:46;3.00;;;2.90;;
8948;SDS011;4509;51.522;9.910;2022-07-22T08:40:12;2.70;;;2.60;;
8948;SDS011;4509;51.522;9.910;2022-07-22T08:42:40;2.43;;;2.33;;
8948;SDS011;4509;51.522;9.910;2022-07-22T08:45:08;2.77;;;2.67;;
8948;SDS011;4509;51.522;9.910;2022-07-22T08:47:37;2.60;;;2.50;;
8948;SDS011;4509;51.522;9.910;2022-07-22T08:50:04;2.90;;;2.80;;
8948;SDS011;4509;51.522;9.910;2022-07-22T08:52:31;3.28;;;3.17;;
8948;SDS011;4509;51.522;9.910;2022-07-22T08:54:58;2.97;;;2.87;;
8948;SDS011;4509;51.522;9.910;2022-07-22T08:57:25;2.70;;;2.60;;
8948;SDS011;4509;51.522;9.910;2022-07-22T08:59:51;3.03;;;2.93;;
8948;SDS011;4509;51.522;9.910;2022-07-22T09:02:19;3.20;;;3.10;;
8948;SDS011;4509;51.522;9.910;2022-07-22T09:04:52;2.93;;;2.83;;
8948;SDS011;4509;51.522;9.910;2022-07-22T09:07:25;3.20;;;3.10;;
8948;SDS011;4509;51.522;9.910;2022-07-22T09:09:53;2.80;;;2.70;;
8948;SDS011;4509;51.522;9.910;2022-07-22T09:12:20;2.90;;;2.80;;
8948;SDS011;4509;51.522;9.910;2022-07-22T09:14:48;2.92;;;2.83;;
8948;SDS011;4509;51.522;9.910;2022-07-22T09:17:23;3.43;;;3.33;;
8948;SDS011;4509;51.522;9.910;2022-07-22T09:19:53;3.30;;;3.20;;
8948;SDS011;4509;51.522;9.910;2022-07-22T09:25:17;3.22;;;3.13;;
8948;SDS011;4509;51.522;9.910;2022-07-22T09:27:45;3.13;;;3.03;;
8948;SDS011;4509;51.522;9.910;2022-07-22T09:30:13;3.50;;;3.40;;
8948;SDS011;4509;51.522;9.910;2022-07-22T09:32:40;3.47;;;3.37;;
8948;SDS011;4509;51.522;9.910;2022-07-22T09:35:09;3.47;;;3.37;;
8948;SDS011;4509;51.522;9.910;2022-07-22T09:37:37;2.90;;;2.80;;
8948;SDS011;4509;51.522;9.910;2022-07-22T09:40:14;3.13;;;3.03;;
8948;SDS011;4509;51.522;9.910;2022-07-22T09:42:45;2.83;;;2.73;;
8948;SDS011;4509;51.522;9.910;2022-07-22T09:45:14;2.90;;;2.80;;
8948;SDS011;4509;51.522;9.910;2022-07-22T09:47:42;3.03;;;2.93;;
8948;SDS011;4509;51.522;9.910;2022-07-22T09:50:21;2.95;;;2.85;;
8948;SDS011;4509;51.522;9.910;2022-07-22T09:52:50;2.80;;;2.70;;
8948;SDS011;4509;51.522;9.910;2022-07-22T09:55:19;3.10;;;3.00;;
8948;SDS011;4509;51.522;9.910;2022-07-22T09:57:48;2.70;;;2.60;;
8948;SDS011;4509;51.522;9.910;2022-07-22T10:00:17;2.60;;;2.50;;
8948;SDS011;4509;51.522;9.910;2022-07-22T10:02:46;2.90;;;2.80;;
8948;SDS011;4509;51.522;9.910;2022-07-22T10:05:15;2.97;;;2.87;;
8948;SDS011;4509;51.522;9.910;2022-07-22T10:07:44;2.63;;;2.53;;
8948;SDS011;4509;51.522;9.910;2022-07-22T10:10:13;2.67;;;2.58;;
8948;SDS011;4509;51.522;9.910;2022-07-22T10:12:41;2.50;;;2.40;;
8948;SDS011;4509;51.522;9.910;2022-07-22T10:15:09;2.70;;;2.60;;
8948;SDS011;4509;51.522;9.910;2022-07-22T10:17:37;2.58;;;2.47;;
8948;SDS011;4509;51.522;9.910;2022-07-22T10:20:05;2.53;;;2.42;;
8948;SDS011;4509;51.522;9.910;2022-07-22T10:25:30;2.70;;;2.60;;
8948;SDS011;4509;51.522;9.910;2022-07-22T10:27:59;2.35;;;2.25;;
8948;SDS011;4509;51.522;9.910;2022-07-22T10:30:29;2.33;;;2.22;;
8948;SDS011;4509;51.522;9.910;2022-07-22T10:33:10;2.55;;;2.45;;
8948;SDS011;4509;51.522;9.910;2022-07-22T10:35:50;2.47;;;2.38;;
8948;SDS011;4509;51.522;9.910;2022-07-22T10:38:21;2.53;;;2.42;;
8948;SDS011;4509;51.522;9.910;2022-07-22T10:40:49;2.47;;;2.38;;
8948;SDS011;4509;51.522;9.910;2022-07-22T10:43:19;2.38;;;2.28;;
8948;SDS011;4509;51.522;9.910;2022-07-22T10:45:48;2.55;;;2.45;;
8948;SDS011;4509;51.522;9.910;2022-07-22T10:48:17;2.78;;;2.67;;
8948;SDS011;4509;51.522;9.910;2022-07-22T10:50:49;2.60;;;2.50;;
8948;SDS011;4509;51.522;9.910;2022-07-22T10:53:42;2.40;;;2.30;;
8948;SDS011;4509;51.522;9.910;2022-07-22T10:56:18;2.10;;;2.08;;
8948;SDS011;4509;51.522;9.910;2022-07-22T10:58:49;2.28;;;2.20;;
8948;SDS011;4509;51.522;9.910;2022-07-22T11:01:18;2.08;;;2.05;;
8948;SDS011;4509;51.522;9.910;2022-07-22T11:03:48;2.30;;;2.20;;
8948;SDS011;4509;51.522;9.910;2022-07-22T11:06:17;2.70;;;2.60;;
8948;SDS011;4509;51.522;9.910;2022-07-22T11:08:48;2.40;;;2.30;;
8948;SDS011;4509;51.522;9.910;2022-07-22T11:11:16;3.10;;;3.00;;
8948;SDS011;4509;51.522;9.910;2022-07-22T11:13:44;3.20;;;3.10;;
8948;SDS011;4509;51.522;9.910;2022-07-22T11:16:15;3.08;;;2.97;;
8948;SDS011;4509;51.522;9.910;2022-07-22T11:18:47;3.70;;;3.60;;
8948;SDS011;4509;51.522;9.910;2022-07-22T11:21:17;3.40;;;3.30;;
8948;SDS011;4509;51.522;9.910;2022-07-22T11:23:46;3.65;;;3.55;;
8948;SDS011;4509;51.522;9.910;2022-07-22T11:26:16;4.05;;;3.95;;
8948;SDS011;4509;51.522;9.910;2022-07-22T11:28:45;3.97;;;3.88;;
8948;SDS011;4509;51.522;9.910;2022-07-22T11:31:16;3.85;;;3.75;;
8948;SDS011;4509;51.522;9.910;2022-07-22T11:33:44;3.83;;;3.72;;
8948;SDS011;4509;51.522;9.910;2022-07-22T11:36:11;3.78;;;3.67;;
8948;SDS011;4509;51.522;9.910;2022-07-22T11:38:39;4.13;;;4.03;;
8948;SDS011;4509;51.522;9.910;2022-07-22T11:41:22;3.97;;;3.88;;
8948;SDS011;4509;51.522;9.910;2022-07-22T11:43:49;3.58;;;3.47;;
8948;SDS011;4509;51.522;9.910;2022-07-22T11:46:16;3.95;;;3.85;;
8948;SDS011;4509;51.522;9.910;2022-07-22T11:48:44;3.80;;;3.70;;
8948;SDS011;4509;51.522;9.910;2022-07-22T11:51:12;3.50;;;3.40;;
8948;SDS011;4509;51.522;9.910;2022-07-22T11:53:41;3.28;;;3.17;;
8948;SDS011;4509;51.522;9.910;2022-07-22T11:56:08;3.33;;;3.22;;
8948;SDS011;4509;51.522;9.910;2022-07-22T11:58:38;3.67;;;3.58;;
8948;SDS011;4509;51.522;9.910;2022-07-22T12:01:07;3.38;;;3.28;;
8948;SDS011;4509;51.522;9.910;2022-07-22T12:03:36;3.88;;;3.78;;
8948;SDS011;4509;51.522;9.910;2022-07-22T12:06:05;3.70;;;3.60;;
8948;SDS011;4509;51.522;9.910;2022-07-22T12:08:34;3.40;;;3.30;;
8948;SDS011;4509;51.522;9.910;2022-07-22T12:11:05;3.55;;;3.45;;
8948;SDS011;4509;51.522;9.910;2022-07-22T12:13:32;3.30;;;3.20;;
8948;SDS011;4509;51.522;9.910;2022-07-22T12:16:07;3.53;;;3.42;;
8948;SDS011;4509;51.522;9.910;2022-07-22T12:18:43;3.10;;;3.00;;
8948;SDS011;4509;51.522;9.910;2022-07-22T12:21:10;4.00;;;3.90;;
8948;SDS011;4509;51.522;9.910;2022-07-22T12:23:37;3.88;;;3.78;;
8948;SDS011;4509;51.522;9.910;2022-07-22T12:26:03;3.65;;;3.55;;
8948;SDS011;4509;51.522;9.910;2022-07-22T12:28:30;3.70;;;3.60;;
8948;SDS011;4509;51.522;9.910;2022-07-22T12:30:58;3.70;;;3.60;;
8948;SDS011;4509;51.522;9.910;2022-07-22T12:33:27;3.58;;;3.47;;
8948;SDS011;4509;51.522;9.910;2022-07-22T12:35:57;3.60;;;3.50;;
8948;SDS011;4509;51.522;9.910;2022-07-22T12:38:26;3.60;;;3.50;;
8948;SDS011;4509;51.522;9.910;2022-07-22T12:40:52;3.55;;;3.45;;
8948;SDS011;4509;51.522;9.910;2022-07-22T12:43:23;3.17;;;3.08;;
8948;SDS011;4509;51.522;9.910;2022-07-22T12:45:51;3.47;;;3.38;;
8948;SDS011;4509;51.522;9.910;2022-07-22T12:48:20;3.35;;;3.25;;
8948;SDS011;4509;51.522;9.910;2022-07-22T12:50:55;3.30;;;3.20;;
8948;SDS011;4509;51.522;9.910;2022-07-22T12:53:23;3.50;;;3.40;;
8948;SDS011;4509;51.522;9.910;2022-07-22T12:55:54;3.78;;;3.67;;
8948;SDS011;4509;51.522;9.910;2022-07-22T12:58:23;3.30;;;3.20;;
8948;SDS011;4509;51.522;9.910;2022-07-22T13:00:55;3.45;;;3.35;;
8948;SDS011;4509;51.522;9.910;2022-07-22T13:03:26;3.53;;;3.42;;
8948;SDS011;4509;51.522;9.910;2022-07-22T13:05:56;2.70;;;2.60;;
8948;SDS011;4509;51.522;9.910;2022-07-22T13:08:24;2.40;;;2.30;;
8948;SDS011;4509;51.522;9.910;2022-07-22T13:10:52;2.53;;;2.42;;
8948;SDS011;4509;51.522;9.910;2022-07-22T13:13:21;2.50;;;2.40;;
8948;SDS011;4509;51.522;9.910;2022-07-22T13:15:48;2.80;;;2.70;;
8948;SDS011;4509;51.522;9.910;2022-07-22T13:18:26;2.63;;;2.53;;
8948;SDS011;4509;51.522;9.910;2022-07-22T13:20:54;2.60;;;2.50;;
8948;SDS011;4509;51.522;9.910;2022-07-22T13:23:21;2.10;;;2.10;;
8948;SDS011;4509;51.522;9.910;2022-07-22T13:25:50;2.65;;;2.55;;
8948;SDS011;4509;51.522;9.910;2022-07-22T13:28:16;2.65;;;2.55;;
8948;SDS011;4509;51.522;9.910;2022-07-22T13:30:47;2.33;;;2.22;;
8948;SDS011;4509;51.522;9.910;2022-07-22T13:33:13;2.55;;;2.45;;
8948;SDS011;4509;51.522;9.910;2022-07-22T13:35:43;2.67;;;2.58;;
8948;SDS011;4509;51.522;9.910;2022-07-22T13:38:10;2.42;;;2.33;;
8948;SDS011;4509;51.522;9.910;2022-07-22T13:40:37;2.58;;;2.47;;
8948;SDS011;4509;51.522;9.910;2022-07-22T13:43:06;2.72;;;2.63;;
8948;SDS011;4509;51.522;9.910;2022-07-22T13:45:33;2.50;;;2.40;;
8948;SDS011;4509;51.522;9.910;2022-07-22T13:48:02;2.60;;;2.50;;
8948;SDS011;4509;51.522;9.910;2022-07-22T13:50:29;2.75;;;2.65;;
8948;SDS011;4509;51.522;9.910;2022-07-22T13:52:58;3.08;;;2.97;;
8948;SDS011;4509;51.522;9.910;2022-07-22T13:55:28;3.22;;;3.13;;
8948;SDS011;4509;51.522;9.910;2022-07-22T13:57:55;2.88;;;2.78;;
8948;SDS011;4509;51.522;9.910;2022-07-22T14:00:23;2.60;;;2.50;;
8948;SDS011;4509;51.522;9.910;2022-07-22T14:02:50;2.88;;;2.78;;
8948;SDS011;4509;51.522;9.910;2022-07-22T14:05:20;2.60;;;2.50;;
8948;SDS011;4509;51.522;9.910;2022-07-22T14:07:49;2.60;;;2.50;;
8948;SDS011;4509;51.522;9.910;2022-07-22T14:10:17;2.58;;;2.47;;
8948;SDS011;4509;51.522;9.910;2022-07-22T14:12:44;2.50;;;2.40;;
8948;SDS011;4509;51.522;9.910;2022-07-22T14:15:11;2.63;;;2.53;;
8948;SDS011;4509;51.522;9.910;2022-07-22T14:17:44;2.70;;;2.60;;
8948;SDS011;4509;51.522;9.910;2022-07-22T14:20:15;2.67;;;2.58;;
8948;SDS011;4509;51.522;9.910;2022-07-22T14:22:44;2.53;;;2.42;;
8948;SDS011;4509;51.522;9.910;2022-07-22T14:25:11;2.65;;;2.55;;
8948;SDS011;4509;51.522;9.910;2022-07-22T14:28:00;2.55;;;2.45;;
8948;SDS011;4509;51.522;9.910;2022-07-22T14:30:27;2.38;;;2.28;;
8948;SDS011;4509;51.522;9.910;2022-07-22T14:32:54;2.60;;;2.50;;
8948;SDS011;4509;51.522;9.910;2022-07-22T14:35:21;2.35;;;2.25;;
8948;SDS011;4509;51.522;9.910;2022-07-22T14:37:49;2.72;;;2.63;;
8948;SDS011;4509;51.522;9.910;2022-07-22T14:40:16;2.80;;;2.70;;
8948;SDS011;4509;51.522;9.910;2022-07-22T14:42:44;2.88;;;2.78;;
8948;SDS011;4509;51.522;9.910;2022-07-22T14:45:12;3.08;;;2.97;;
8948;SDS011;4509;51.522;9.910;2022-07-22T14:47:39;2.85;;;2.75;;
8948;SDS011;4509;51.522;9.910;2022-07-22T14:50:06;2.97;;;2.88;;
8948;SDS011;4509;51.522;9.910;2022-07-22T14:52:34;3.05;;;2.95;;
8948;SDS011;4509;51.522;9.910;2022-07-22T14:55:01;3.00;;;2.90;;
8948;SDS011;4509;51.522;9.910;2022-07-22T14:57:27;2.67;;;2.58;;
8948;SDS011;4509;51.522;9.910;2022-07-22T14:59:57;2.65;;;2.55;;
8948;SDS011;4509;51.522;9.910;2022-07-22T15:02:25;2.60;;;2.50;;
8948;SDS011;4509;51.522;9.910;2022-07-22T15:04:54;2.60;;;2.50;;
8948;SDS011;4509;51.522;9.910;2022-07-22T15:07:24;2.67;;;2.58;;
8948;SDS011;4509;51.522;9.910;2022-07-22T15:09:59;2.50;;;2.40;;
8948;SDS011;4509;51.522;9.910;2022-07-22T15:12:30;2.45;;;2.35;;
8948;SDS011;4509;51.522;9.910;2022-07-22T15:14:56;2.47;;;2.38;;
8948;SDS011;4509;51.522;9.910;2022-07-22T15:17:28;2.60;;;2.50;;
8948;SDS011;4509;51.522;9.910;2022-07-22T15:20:00;2.67;;;2.58;;
8948;SDS011;4509;51.522;9.910;2022-07-22T15:22:29;2.63;;;2.53;;
8948;SDS011;4509;51.522;9.910;2022-07-22T15:25:00;2.60;;;2.50;;